Terminal Aerodrome Forecast
Issued by NWS

Home | Current Version | Previous Version | Text Only | Print | Product List | Glossary On
Versions: 1 2 3 4 5 6 7 8 9 10 11 12 13 14 15 16 17
000
FTAK31 PAJN 070742 AAB
TAFAJN
TAF AMD
PAJN 070742Z 0708/0806 09009KT 2SM -SN BR FEW015 OVC035
      TEMPO 0708/0712 1SM -SN BR OVC015
     FM071200 11009KT 1SM -SN BR SCT006 OVC020
     FM072200 11009KT 1/2SM SN SCT006 OVC020
     FM080500 11009KT 3SM BR SCT006 OVC050=

USA.gov is the U.S. government's official web portal to all federal, state and local government web resources and services.